Time;durP1;ratioP1;P1;durP2;ratioP2;P2;SDS_P1;SDS_P2;PMS_P1;PMS_P2;Temp;Humidity;BMP_temperature;BMP_pressure;BME280_temperature;BME280_humidity;BME280_pressure;Samples;Min_cycle;Max_cycle;Signal;HPM_P1;HPM_P2
2022/09/03 00:02:26;;;;;;;2.30;1.63;;;24.40;48.50;;;-142.21;45.48;112049.66;5051965;28;20250;-75
2022/09/03 00:05:05;;;;;;;2.67;1.60;;;24.40;48.40;;;-142.21;45.01;112049.66;5046455;28;20195;-75
2022/09/03 00:07:46;;;;;;;2.13;1.60;;;24.40;48.40;;;-142.21;44.25;112049.66;5053375;28;20200;-75
2022/09/03 00:10:31;;;;;;;3.73;1.50;;;24.40;48.10;;;-142.21;44.71;112049.66;5052714;28;20281;-75
2022/09/03 00:13:05;;;;;;;2.07;1.60;;;24.40;48.30;;;-142.21;45.56;112049.66;5046154;28;20197;-75
2022/09/03 00:15:35;;;;;;;2.03;1.47;;;24.40;48.40;;;-142.21;46.45;112049.66;5053342;28;20206;-75
2022/09/03 00:18:09;;;;;;;5.33;2.03;;;24.30;48.80;;;-142.21;47.44;112049.66;5052445;28;20198;-75
2022/09/03 00:20:44;;;;;;;2.13;1.70;;;24.30;49.20;;;-142.21;48.35;112049.66;5053342;28;20193;-75
2022/09/03 00:23:22;;;;;;;1.87;1.70;;;24.20;49.50;;;-142.21;48.44;112049.66;5003163;28;20202;-75
2022/09/03 00:25:56;;;;;;;1.67;1.50;;;24.20;49.60;;;-142.21;47.10;112049.66;5049738;28;20188;-75
2022/09/03 00:28:35;;;;;;;1.50;1.40;;;24.20;49.30;;;-142.21;47.73;112049.66;5049148;28;20673;-75
2022/09/03 00:31:17;;;;;;;2.60;2.00;;;24.20;49.60;;;-142.21;48.17;112049.66;5052395;28;20555;-75
2022/09/03 00:33:47;;;;;;;1.80;1.60;;;24.10;49.70;;;-142.21;48.42;112049.66;5017652;28;20198;-75
2022/09/03 00:36:23;;;;;;;4.20;1.67;;;24.10;49.60;;;-142.21;48.82;112049.66;5052548;28;20618;-74
2022/09/03 00:38:52;;;;;;;1.57;1.43;;;24.20;49.80;;;-142.21;50.15;112049.66;5049915;28;20194;-75
2022/09/03 00:41:33;;;;;;;1.87;1.70;;;24.10;50.10;;;-142.21;49.82;112049.66;5052208;28;20216;-76
2022/09/03 00:44:37;;;;;;;2.13;1.67;;;24.10;50.30;;;-142.21;49.23;112049.66;5040505;28;20202;-75
2022/09/03 00:47:14;;;;;;;1.73;1.40;;;24.10;50.30;;;-142.21;49.34;112049.66;5049402;28;20205;-75
2022/09/03 00:50:01;;;;;;;3.33;1.67;;;24.10;50.20;;;-142.21;50.96;112049.66;5050630;28;20238;-75
2022/09/03 00:52:48;;;;;;;1.80;1.40;;;24.10;50.70;;;-142.21;52.95;112049.66;5052368;28;20202;-75
2022/09/03 00:55:35;;;;;;;2.97;1.67;;;24.00;51.60;;;-142.21;53.48;112049.66;5052692;28;20212;-75
2022/09/03 00:58:36;;;;;;;1.70;1.60;;;24.00;51.60;;;-142.21;53.09;112049.66;5052554;28;20641;-75
2022/09/03 01:01:21;;;;;;;2.20;1.63;;;23.90;51.60;;;-142.21;55.02;112049.66;5052403;28;20197;-75
2022/09/03 01:04:06;;;;;;;1.67;1.53;;;23.90;52.00;;;-142.21;56.99;112049.66;5052060;28;20224;-75
2022/09/03 01:06:52;;;;;;;4.30;1.87;;;23.80;52.50;;;-142.21;56.64;112049.66;5052987;28;20289;-75
2022/09/03 01:09:47;;;;;;;1.80;1.70;;;23.80;52.50;;;-142.21;57.36;112049.66;5034855;28;20368;-75
2022/09/03 01:12:30;;;;;;;2.67;1.87;;;23.80;52.90;;;-142.21;58.59;112049.66;5052015;28;20247;-75
2022/09/03 01:15:12;;;;;;;3.57;1.60;;;23.70;53.00;;;-142.21;59.99;112049.66;5052576;28;20223;-73
2022/09/03 01:18:02;;;;;;;4.57;1.90;;;23.70;53.50;;;-142.21;61.07;112049.66;5052493;28;20224;-75
2022/09/03 01:20:50;;;;;;;3.40;1.80;;;23.60;53.90;;;-142.21;62.96;112049.66;5040140;28;20200;-75
2022/09/03 01:24:09;;;;;;;2.77;1.80;;;23.60;54.40;;;-142.21;63.13;112049.66;5043160;28;20244;-75
2022/09/03 01:27:14;;;;;;;2.10;1.90;;;23.60;54.70;;;-142.21;62.04;112049.66;5027597;28;20630;-75
2022/09/03 01:29:57;;;;;;;1.53;1.43;;;23.50;54.40;;;-142.21;60.61;112049.66;5047350;28;20256;-77
2022/09/03 01:32:37;;;;;;;2.00;1.80;;;23.50;53.80;;;-142.21;59.81;112049.66;5055423;28;20220;-75
2022/09/03 01:35:18;;;;;;;2.97;1.90;;;23.50;53.70;;;-142.21;59.60;112049.66;5069591;28;20210;-75
2022/09/03 01:38:08;;;;;;;4.43;2.00;;;23.50;53.70;;;-142.21;60.18;112049.66;5044911;28;20198;-76
2022/09/03 01:40:49;;;;;;;3.07;1.93;;;23.40;53.80;;;-142.21;62.65;112049.66;5043891;28;20199;-74
2022/09/03 01:43:42;;;;;;;2.03;1.83;;;23.40;54.20;;;-142.21;63.46;112049.66;5048822;28;20560;-74
2022/09/03 01:46:22;;;;;;;2.77;1.70;;;23.40;54.70;;;-142.21;63.62;112049.66;5051003;28;20225;-76
2022/09/03 01:48:59;;;;;;;2.93;2.03;;;23.40;54.60;;;-142.21;62.11;112049.66;5051195;28;20293;-76
2022/09/03 01:51:31;;;;;;;1.77;1.60;;;23.40;54.40;;;-142.21;60.88;112049.66;5031763;28;20262;-75
2022/09/03 01:54:23;;;;;;;2.07;1.80;;;23.30;54.00;;;-142.21;62.69;112049.66;5050100;28;20198;-76
2022/09/03 01:57:25;;;;;;;3.97;1.80;;;23.30;54.60;;;-142.21;65.47;112049.66;5054763;28;20305;-75
2022/09/03 02:00:01;;;;;;;3.93;1.93;;;23.30;55.70;;;-142.21;64.09;112049.66;5041402;28;20247;-76
2022/09/03 02:02:31;;;;;;;4.47;1.90;;;23.20;55.00;;;-142.21;65.16;112049.66;5055010;28;20645;-74
2022/09/03 02:05:05;;;;;;;3.30;1.80;;;23.20;55.10;;;-142.21;66.14;112049.66;5056478;28;20292;-75
2022/09/03 02:07:38;;;;;;;2.30;2.10;;;23.10;55.50;;;-142.21;66.00;112049.66;5018533;28;20198;-75
2022/09/03 02:10:11;;;;;;;3.47;1.70;;;23.10;55.50;;;-142.21;66.73;112049.66;5046041;28;20285;-73
2022/09/03 02:12:42;;;;;;;2.53;1.87;;;23.10;55.80;;;-142.21;64.78;112049.66;5043175;28;20198;-75
2022/09/03 02:15:15;;;;;;;3.97;1.90;;;23.10;55.40;;;-142.21;65.14;112049.66;5055047;28;20210;-74
2022/09/03 02:17:48;;;;;;;3.57;1.70;;;23.10;55.40;;;-142.21;67.11;112049.66;5054948;28;20216;-75
2022/09/03 02:20:22;;;;;;;3.50;2.00;;;23.00;55.70;;;-142.21;68.91;112049.66;5046362;28;20252;-74
2022/09/03 02:22:53;;;;;;;3.27;2.03;;;23.00;56.10;;;-142.21;69.65;112049.66;5044666;28;20194;-75
2022/09/03 02:25:29;;;;;;;2.03;1.77;;;23.00;56.60;;;-142.21;70.91;112049.66;5054939;28;20186;-74
2022/09/03 02:27:57;;;;;;;3.23;2.30;;;23.00;57.00;;;-142.21;70.42;112049.66;5012131;28;20198;-74
2022/09/03 02:30:24;;;;;;;6.57;1.90;;;22.90;56.80;;;-142.21;69.39;112049.66;5036090;28;20206;-75
2022/09/03 02:32:53;;;;;;;1.97;1.67;;;22.90;56.50;;;-142.21;70.37;112049.66;5044044;28;20236;-75
2022/09/03 02:35:20;;;;;;;3.07;2.00;;;22.90;56.90;;;-142.21;70.50;112049.66;5054719;28;20261;-75
2022/09/03 02:37:48;;;;;;;2.73;1.80;;;22.90;57.00;;;-142.21;70.87;112049.66;5053979;28;20209;-75
2022/09/03 02:40:16;;;;;;;3.27;2.10;;;22.90;57.00;;;-142.21;71.45;112049.66;5046454;28;20207;-77
2022/09/03 02:42:47;;;;;;;2.23;2.03;;;22.90;57.40;;;-142.21;72.15;112049.66;5042428;28;20201;-76
2022/09/03 02:45:27;;;;;;;2.33;2.07;;;22.90;57.70;;;-142.21;73.06;112049.66;5055865;28;20312;-75
2022/09/03 02:48:00;;;;;;;2.13;1.90;;;22.90;58.20;;;-142.21;73.10;112049.66;5054333;28;20275;-77
2022/09/03 02:50:28;;;;;;;3.63;2.03;;;22.90;58.10;;;-142.21;73.57;112049.66;5053758;28;21136;-75
2022/09/03 02:52:55;;;;;;;2.37;1.80;;;22.80;58.10;;;-142.21;73.31;112049.66;5054883;28;20206;-76
2022/09/03 02:55:23;;;;;;;2.20;2.00;;;22.80;58.00;;;-142.21;73.21;112049.66;5054260;28;20248;-76
2022/09/03 02:57:50;;;;;;;2.63;2.10;;;22.80;57.90;;;-142.21;72.26;112049.66;5044563;28;20264;-75
2022/09/03 03:00:18;;;;;;;2.63;1.90;;;22.70;57.70;;;-142.21;71.50;112049.66;5023010;28;20209;-75
2022/09/03 03:02:45;;;;;;;2.23;1.90;;;22.70;57.50;;;-142.21;72.58;112049.66;5054678;28;20198;-75
2022/09/03 03:05:24;;;;;;;3.90;2.07;;;22.70;57.90;;;-142.21;72.54;112049.66;5054311;28;20217;-75
2022/09/03 03:07:51;;;;;;;3.40;1.60;;;22.70;58.20;;;-142.21;72.68;112049.66;5046324;28;20574;-76
2022/09/03 03:10:19;;;;;;;2.73;2.10;;;22.70;58.20;;;-142.21;72.89;112049.66;5048818;28;20642;-76
2022/09/03 03:12:46;;;;;;;3.07;2.10;;;22.60;58.30;;;-142.21;72.83;112049.66;5052283;28;20267;-76
2022/09/03 03:15:15;;;;;;;3.07;1.97;;;22.70;58.20;;;-142.21;73.04;112049.66;5049162;28;20198;-75
2022/09/03 03:17:45;;;;;;;2.53;1.80;;;22.60;58.20;;;-142.21;73.86;112049.66;5051855;28;20244;-75
2022/09/03 03:20:13;;;;;;;1.73;1.63;;;22.60;58.20;;;-142.21;73.50;112049.66;5053546;28;20291;-75
2022/09/03 03:22:41;;;;;;;3.00;1.97;;;22.60;58.30;;;-142.21;73.66;112049.66;5054078;28;20252;-75
2022/09/03 03:25:09;;;;;;;4.20;2.00;;;22.60;58.30;;;-142.21;71.98;112049.66;5054037;28;20209;-76
2022/09/03 03:27:41;;;;;;;2.57;2.00;;;22.60;57.90;;;-142.21;73.22;112049.66;5052119;28;20241;-75
2022/09/03 03:30:13;;;;;;;2.30;2.07;;;22.60;58.10;;;-142.21;73.13;112049.66;5048598;28;20198;-75
2022/09/03 03:32:40;;;;;;;2.13;1.93;;;22.60;58.30;;;-142.21;74.05;112049.66;5040964;28;20298;-75
2022/09/03 03:35:10;;;;;;;4.47;2.13;;;22.60;58.50;;;-142.21;73.37;112049.66;5053955;28;20709;-75
2022/09/03 03:37:39;;;;;;;3.13;2.10;;;22.60;58.40;;;-142.21;71.59;112049.66;5031327;28;20222;-75
2022/09/03 03:40:08;;;;;;;3.27;2.13;;;22.60;57.80;;;-142.21;73.34;112049.66;5034886;28;20203;-75
2022/09/03 03:42:37;;;;;;;1.83;1.70;;;22.60;58.20;;;-142.21;73.50;112049.66;5042842;28;20544;-75
2022/09/03 03:45:06;;;;;;;2.10;1.90;;;22.60;58.40;;;-142.21;72.67;112049.66;5053845;28;20307;-75
2022/09/03 03:47:34;;;;;;;2.17;1.97;;;22.60;58.20;;;-142.21;71.27;112049.66;5050980;28;20703;-75
2022/09/03 03:50:02;;;;;;;3.93;2.23;;;22.60;57.90;;;-142.21;72.55;112049.66;5050185;28;20710;-75
2022/09/03 03:52:29;;;;;;;2.90;2.00;;;22.60;58.20;;;-142.21;74.13;112049.66;5050736;28;20226;-75
2022/09/03 03:54:57;;;;;;;2.47;2.20;;;22.60;59.20;;;-142.21;76.07;112049.66;5044030;28;20205;-75
2022/09/03 03:57:25;;;;;;;3.00;2.23;;;22.60;59.20;;;-142.21;77.20;112049.66;5046921;28;20227;-74
2022/09/03 03:59:52;;;;;;;2.57;1.90;;;22.60;59.50;;;-142.21;77.42;112049.66;5033887;28;20602;-74
2022/09/03 04:02:20;;;;;;;4.77;2.50;;;22.60;59.60;;;-142.21;78.75;112049.66;5037167;28;20237;-75
2022/09/03 04:04:47;;;;;;;3.03;2.00;;;22.60;60.00;;;-142.21;80.55;112049.66;5044621;28;20279;-76
2022/09/03 04:07:14;;;;;;;3.40;2.20;;;22.50;60.80;;;-142.21;80.87;112049.66;5038670;28;20228;-75
2022/09/03 04:09:41;;;;;;;5.97;2.53;;;22.50;61.10;;;-142.21;80.92;112049.66;5048063;28;20278;-75
2022/09/03 04:12:10;;;;;;;4.00;2.30;;;22.40;61.70;;;-142.21;80.25;112049.66;5036773;28;20217;-75
2022/09/03 04:14:37;;;;;;;3.20;1.90;;;22.30;61.40;;;-142.21;81.34;112049.66;5053196;28;20682;-75
2022/09/03 04:17:04;;;;;;;4.43;2.47;;;22.20;61.80;;;-142.21;81.83;112049.66;5048015;28;20214;-75
2022/09/03 04:19:32;;;;;;;2.83;2.20;;;22.20;61.80;;;-142.21;83.20;112049.66;5051129;28;20214;-78
2022/09/03 04:21:59;;;;;;;3.97;2.30;;;22.20;62.40;;;-142.21;83.92;112049.66;5052753;28;20670;-79
2022/09/03 04:24:27;;;;;;;2.97;2.50;;;22.20;62.80;;;-142.21;84.78;112049.66;5052614;28;20197;-79
2022/09/03 04:26:54;;;;;;;4.53;2.63;;;22.20;63.10;;;-142.21;83.73;112049.66;5051627;28;20194;-78
2022/09/03 04:29:23;;;;;;;2.87;2.53;;;22.20;63.10;;;-142.21;83.83;112049.66;5052163;28;20207;-78
2022/09/03 04:34:35;;;;;;;5.07;2.63;;;22.20;63.70;;;-142.21;86.42;112049.66;5052748;28;20281;-81
2022/09/03 04:37:02;;;;;;;5.20;2.43;;;22.20;64.40;;;-142.21;84.68;112049.66;5044587;28;20325;-79
2022/09/03 04:39:30;;;;;;;3.53;2.30;;;22.20;64.10;;;-142.21;85.70;112049.66;5048807;28;20610;-79
2022/09/03 04:41:57;;;;;;;3.77;2.30;;;22.20;64.10;;;-142.21;85.40;112049.66;5053559;28;20205;-82
2022/09/03 04:44:25;;;;;;;2.80;2.30;;;22.20;64.20;;;-142.21;86.69;112049.66;5053357;28;20233;-79
2022/09/03 04:46:53;;;;;;;6.83;4.07;;;22.10;64.40;;;-142.21;87.90;112049.66;5045526;28;20654;-82
2022/09/03 04:49:20;;;;;;;8.67;4.30;;;22.10;65.00;;;-142.21;87.92;112049.66;5045620;28;20248;-78
2022/09/03 04:51:47;;;;;;;6.97;3.50;;;22.10;65.90;;;-142.21;89.34;112049.66;5038060;28;20208;-81
2022/09/03 04:54:14;;;;;;;8.43;3.53;;;22.10;65.60;;;-142.21;89.67;112049.66;5052706;28;20678;-77
2022/09/03 04:56:42;;;;;;;4.40;2.40;;;22.10;66.00;;;-142.21;88.66;112049.66;5052422;28;20240;-78
2022/09/03 04:59:10;;;;;;;4.33;2.30;;;22.10;65.60;;;-142.21;88.28;112049.66;5053160;28;20303;-79
2022/09/03 05:01:40;;;;;;;3.40;2.03;;;22.00;65.50;;;-142.21;89.39;112049.66;5034326;28;20206;-78
2022/09/03 05:04:09;;;;;;;3.83;2.47;;;22.00;66.20;;;-142.21;88.55;112049.66;5068117;28;20214;-72
2022/09/03 05:06:40;;;;;;;3.93;3.50;;;22.00;66.00;;;-142.21;89.78;112049.66;5063771;28;20193;-72
2022/09/03 05:09:07;;;;;;;4.60;2.47;;;22.10;66.20;;;-142.21;89.00;112049.66;5053391;28;20256;-72
2022/09/03 05:11:34;;;;;;;2.90;2.50;;;22.00;65.80;;;-142.21;88.79;112049.66;5044787;28;20252;-74
2022/09/03 05:14:02;;;;;;;2.90;2.47;;;22.00;65.80;;;-142.21;89.13;112049.66;5039754;28;20241;-76
2022/09/03 05:16:30;;;;;;;2.50;2.30;;;22.00;66.20;;;-142.21;88.69;112049.66;5041529;28;20225;-76
2022/09/03 05:19:02;;;;;;;3.37;2.50;;;22.00;66.20;;;-142.21;90.15;112049.66;5052516;28;20285;-76
2022/09/03 05:21:30;;;;;;;3.40;2.57;;;22.00;66.60;;;-142.21;88.82;112049.66;5052477;28;20186;-76
2022/09/03 05:23:59;;;;;;;4.40;2.20;;;22.00;66.30;;;-142.21;87.29;112049.66;5053529;28;20205;-77
2022/09/03 05:26:29;;;;;;;3.27;2.33;;;22.00;65.60;;;-142.21;88.38;112049.66;5052669;28;20658;-78
2022/09/03 05:28:59;;;;;;;2.70;2.30;;;22.10;66.10;;;-142.21;87.79;112049.66;5034908;28;20618;-78
2022/09/03 05:31:30;;;;;;;2.53;1.87;;;22.00;66.10;;;-142.21;86.20;112049.66;5033165;28;20701;-77
2022/09/03 05:34:01;;;;;;;2.13;1.93;;;22.10;65.10;;;-142.21;85.69;112049.66;5033071;28;20198;-77
2022/09/03 05:36:32;;;;;;;2.70;2.00;;;22.10;64.80;;;-142.21;86.19;112049.66;5038837;28;20308;-79
2022/09/03 05:39:00;;;;;;;2.10;2.00;;;22.10;65.20;;;-142.21;85.57;112049.66;5034550;28;20651;-78
2022/09/03 05:41:29;;;;;;;2.97;2.10;;;22.10;64.70;;;-142.21;86.59;112049.66;5032134;28;20268;-77
2022/09/03 05:43:57;;;;;;;3.20;2.10;;;22.10;65.20;;;-142.21;86.52;112049.66;5032662;28;20199;-78
2022/09/03 05:46:30;;;;;;;2.03;1.83;;;22.10;65.20;;;-142.21;85.19;112049.66;5043600;28;20249;-79
2022/09/03 05:49:00;;;;;;;2.23;1.77;;;22.10;64.40;;;-142.21;84.08;112049.66;5034599;28;20293;-79
2022/09/03 05:51:28;;;;;;;3.60;2.07;;;22.20;64.40;;;-142.21;83.46;112049.66;5031803;28;20651;-79
2022/09/03 05:53:56;;;;;;;3.67;2.40;;;22.20;64.00;;;-142.21;84.16;112049.66;5049441;28;20209;-79
2022/09/03 05:56:27;;;;;;;2.17;2.00;;;22.20;64.20;;;-142.21;84.36;112049.66;5051313;28;20271;-79
2022/09/03 05:58:58;;;;;;;2.07;1.83;;;22.20;64.50;;;-142.21;83.97;112049.66;5050092;28;20616;-79
2022/09/03 06:01:29;;;;;;;2.37;2.17;;;22.20;64.20;;;-142.21;84.13;112049.66;5052800;28;20289;-79
2022/09/03 06:04:01;;;;;;;2.73;2.07;;;22.20;64.40;;;-142.21;82.47;112049.66;5050072;28;20221;-79
2022/09/03 06:06:31;;;;;;;2.80;1.83;;;22.30;63.60;;;-142.21;78.04;112049.66;5051829;28;20209;-79
2022/09/03 06:09:02;;;;;;;4.20;2.23;;;22.30;62.00;;;-142.21;77.72;112049.66;5050505;28;20335;-79
2022/09/03 06:11:32;;;;;;;2.40;2.20;;;22.30;61.20;;;-142.21;81.17;112049.66;5051442;28;20642;-79
2022/09/03 06:14:01;;;;;;;3.00;2.00;;;22.30;62.50;;;-142.21;80.18;112049.66;5048517;28;20297;-79
2022/09/03 06:16:30;;;;;;;2.20;2.00;;;22.40;62.40;;;-142.21;80.56;112049.66;5051233;28;20222;-79
2022/09/03 06:18:59;;;;;;;2.27;2.07;;;22.40;62.50;;;-142.21;82.72;112049.66;5036755;28;20572;-79
2022/09/03 06:21:27;;;;;;;5.13;1.87;;;22.40;63.30;;;-142.21;83.92;112049.66;5030282;28;20245;-79
2022/09/03 06:23:57;;;;;;;2.27;2.00;;;22.50;64.10;;;-142.21;80.23;112049.66;5050638;28;20198;-77
2022/09/03 06:26:26;;;;;;;2.73;2.20;;;22.50;62.60;;;-142.21;82.96;112049.66;5051378;28;20186;-76
2022/09/03 06:28:55;;;;;;;2.27;2.07;;;22.50;63.10;;;-142.21;82.12;112049.66;5051270;28;20213;-76
2022/09/03 06:31:23;;;;;;;2.73;2.30;;;22.60;63.10;;;-142.21;82.30;112049.66;5050660;28;20221;-78
2022/09/03 06:33:50;;;;;;;2.80;2.10;;;22.60;63.20;;;-142.21;82.82;112049.66;5033169;28;20195;-79
2022/09/03 06:36:21;;;;;;;2.37;2.07;;;22.60;63.50;;;-142.21;83.09;112049.66;5051942;28;20202;-77
2022/09/03 06:38:52;;;;;;;2.77;2.47;;;22.70;63.60;;;-142.21;81.99;112049.66;5051804;28;20263;-77
2022/09/03 06:41:23;;;;;;;2.00;1.87;;;22.70;63.10;;;-142.21;81.45;112049.66;5052557;28;20239;-78
2022/09/03 06:43:53;;;;;;;3.30;2.07;;;22.70;62.70;;;-142.21;79.68;112049.66;5036989;28;20199;-77
2022/09/03 06:46:22;;;;;;;3.60;2.07;;;22.70;61.90;;;-142.21;82.73;112049.66;5034195;28;20587;-82
2022/09/03 06:48:51;;;;;;;3.47;1.83;;;22.70;63.10;;;-142.21;83.66;112049.66;5052615;28;20198;-80
2022/09/03 06:51:22;;;;;;;2.53;2.00;;;22.70;63.30;;;-142.21;79.17;112049.66;5051426;28;20201;-81
2022/09/03 06:53:53;;;;;;;2.27;2.00;;;22.70;62.60;;;-142.21;82.64;112049.66;5051685;28;20435;-80
2022/09/03 06:56:25;;;;;;;1.80;1.70;;;22.70;63.00;;;-142.21;81.13;112049.66;5054879;28;20190;-80
2022/09/03 06:58:55;;;;;;;2.17;1.97;;;22.70;62.50;;;-142.21;81.87;112049.66;5054493;28;20580;-80
2022/09/03 07:01:25;;;;;;;2.20;2.00;;;22.70;62.90;;;-142.21;79.73;112049.66;5052532;28;20284;-81
2022/09/03 07:03:56;;;;;;;2.10;1.90;;;22.70;61.80;;;-142.21;81.38;112049.66;5046026;28;20203;-80
2022/09/03 07:06:28;;;;;;;2.67;2.00;;;22.70;62.20;;;-142.21;84.02;112049.66;5033234;28;20245;-80
2022/09/03 07:08:59;;;;;;;2.03;1.93;;;22.70;63.50;;;-142.21;87.38;112049.66;5053003;28;20271;-80
2022/09/03 07:11:29;;;;;;;2.20;2.00;;;22.70;65.00;;;-142.21;86.59;112049.66;5052985;28;20907;-80
2022/09/03 07:13:58;;;;;;;2.23;1.83;;;22.80;65.10;;;-142.21;87.43;112049.66;5054548;28;20252;-79
2022/09/03 07:16:29;;;;;;;4.70;2.27;;;22.70;65.00;;;-142.21;88.93;112049.66;5053744;28;20243;-80
2022/09/03 07:18:57;;;;;;;2.00;1.80;;;22.70;66.00;;;-142.21;87.46;112049.66;5054541;28;20229;-80
2022/09/03 07:21:29;;;;;;;1.83;1.70;;;22.70;65.70;;;-142.21;89.90;112049.66;5049204;28;20258;-80
2022/09/03 07:23:58;;;;;;;2.40;2.20;;;22.70;66.40;;;-142.21;91.04;112049.66;5047112;28;20270;-80
2022/09/03 07:26:29;;;;;;;2.87;2.50;;;22.70;67.10;;;-142.21;91.21;112049.66;5034572;28;20210;-80
2022/09/03 07:28:57;;;;;;;2.47;2.27;;;22.70;68.10;;;-142.21;91.72;112049.66;5052096;28;20194;-80
2022/09/03 07:31:28;;;;;;;3.03;2.40;;;22.70;67.50;;;-142.21;91.89;112049.66;5053978;28;20699;-78
2022/09/03 07:33:55;;;;;;;2.40;2.20;;;22.70;67.80;;;-142.21;90.49;112049.66;5054984;28;20293;-78
2022/09/03 07:36:27;;;;;;;4.43;2.53;;;22.70;67.40;;;-142.21;91.37;112049.66;5054872;28;20202;-78
2022/09/03 07:38:58;;;;;;;2.60;2.40;;;22.70;67.50;;;-142.21;91.26;112049.66;5054534;28;20752;-79
2022/09/03 07:41:27;;;;;;;3.53;2.43;;;22.60;67.70;;;-142.21;91.57;112049.66;5054123;28;20221;-79
2022/09/03 07:43:54;;;;;;;4.33;2.57;;;22.60;68.00;;;-142.21;92.42;112049.66;5054529;28;20202;-80
2022/09/03 07:46:27;;;;;;;2.53;2.33;;;22.60;68.50;;;-142.21;91.72;112049.66;5053754;28;20222;-80
2022/09/03 07:48:57;;;;;;;5.33;2.20;;;22.50;68.20;;;-142.21;90.73;112049.66;5054637;28;20253;-78
2022/09/03 07:51:29;;;;;;;2.87;2.23;;;22.50;67.60;;;-142.21;90.44;112049.66;5054460;28;20297;-80
2022/09/03 07:53:59;;;;;;;4.33;2.63;;;22.50;67.50;;;-142.21;93.52;112049.66;5054164;28;20182;-80
2022/09/03 07:56:29;;;;;;;2.50;2.30;;;22.40;68.50;;;-142.21;94.13;112049.66;5053667;28;20205;-80
2022/09/03 07:58:58;;;;;;;3.17;2.70;;;22.40;69.10;;;-142.21;94.56;112049.66;5053863;28;20327;-78
2022/09/03 08:01:27;;;;;;;4.43;2.40;;;22.30;69.30;;;-142.21;94.10;112049.66;5053421;28;20251;-80
2022/09/03 08:03:55;;;;;;;4.87;2.50;;;22.30;69.20;;;-142.21;94.38;112049.66;5054418;28;20598;-79
2022/09/03 08:06:27;;;;;;;3.23;2.53;;;22.30;69.30;;;-142.21;94.47;112049.66;5054122;28;20297;-81
2022/09/03 08:09:00;;;;;;;2.73;2.53;;;22.30;69.50;;;-142.21;94.24;112049.66;5054412;28;20273;-80
2022/09/03 08:11:31;;;;;;;2.43;2.23;;;22.30;69.90;;;-142.21;93.04;112049.66;5053278;28;20206;-79
2022/09/03 08:14:01;;;;;;;2.63;2.40;;;22.30;69.20;;;-142.21;93.16;112049.66;5053905;28;20196;-79
2022/09/03 08:16:32;;;;;;;5.57;2.60;;;22.30;69.10;;;-142.21;94.19;112049.66;5052979;28;20639;-79
2022/09/03 08:19:00;;;;;;;3.67;2.03;;;22.30;69.70;;;-142.21;93.53;112049.66;5053844;28;20275;-79
2022/09/03 08:21:29;;;;;;;2.93;2.63;;;22.30;69.50;;;-142.21;93.92;112049.66;5053260;28;20237;-80
2022/09/03 08:24:01;;;;;;;3.50;2.90;;;22.30;70.00;;;-142.21;93.36;112049.66;5053828;28;20681;-79
2022/09/03 08:26:30;;;;;;;5.50;2.70;;;22.20;69.30;;;-142.21;96.06;112049.66;5053217;28;20187;-80
2022/09/03 08:28:58;;;;;;;3.80;2.57;;;21.80;70.50;;;-142.21;97.65;112049.66;5053045;28;20237;-78
2022/09/03 08:31:27;;;;;;;3.17;2.83;;;21.60;71.60;;;-142.21;99.98;112049.66;5053376;28;20263;-78
2022/09/03 08:33:57;;;;;;;5.13;2.70;;;21.60;72.80;;;-142.21;99.89;112049.66;5053703;28;20581;-79
2022/09/03 08:36:29;;;;;;;3.03;2.73;;;21.80;73.30;;;-142.21;97.04;112049.66;5053332;28;22356;-81
2022/09/03 08:39:02;;;;;;;3.20;2.73;;;21.90;72.50;;;-142.21;96.52;112049.66;5053849;28;20573;-80
2022/09/03 08:41:46;;;;;;;3.27;2.80;;;21.90;71.30;;;-142.21;96.45;112049.66;5053059;28;20194;-80
2022/09/03 08:44:25;;;;;;;3.40;2.53;;;21.90;71.30;;;-142.21;98.35;112049.66;5052791;28;20285;-79
2022/09/03 08:47:02;;;;;;;4.37;3.00;;;22.00;72.90;;;-142.21;96.88;112049.66;5053027;28;20261;-79
2022/09/03 08:49:41;;;;;;;5.90;3.10;;;22.00;72.00;;;-142.21;97.77;112049.66;5052441;28;20296;-79
2022/09/03 08:52:28;;;;;;;4.17;2.63;;;21.80;73.30;;;-142.21;99.95;112049.66;5053354;28;20236;-80
2022/09/03 08:55:11;;;;;;;3.23;2.93;;;21.60;74.50;;;-142.21;100.00;112049.66;5053131;28;20186;-80
2022/09/03 08:57:46;;;;;;;3.20;2.90;;;21.60;74.80;;;-142.21;100.00;112049.66;5050068;28;20316;-79
2022/09/03 09:00:14;;;;;;;4.47;2.93;;;21.70;75.40;;;-142.21;100.00;112049.66;5052781;28;20658;-79
2022/09/03 09:03:06;;;;;;;3.93;3.53;;;21.70;75.70;;;-142.21;100.00;112049.66;5052479;28;20244;-80
2022/09/03 09:05:47;;;;;;;5.37;3.70;;;21.70;76.60;;;-142.21;100.00;112049.66;5050634;28;20212;-79
2022/09/03 09:08:28;;;;;;;4.73;4.13;;;21.80;77.50;;;-142.21;100.00;112049.66;5052980;28;20273;-80
2022/09/03 09:11:08;;;;;;;3.67;3.37;;;21.90;77.30;;;-142.21;100.00;112049.66;5051956;28;20233;-79
2022/09/03 09:13:47;;;;;;;4.73;4.27;;;22.10;77.40;;;-142.21;100.00;112049.66;5052123;28;20224;-79
2022/09/03 09:16:24;;;;;;;5.30;4.30;;;22.20;77.20;;;-142.21;100.00;112049.66;5051971;28;20586;-75
2022/09/03 09:19:13;;;;;;;4.47;4.07;;;22.20;77.30;;;-142.21;100.00;112049.66;5055965;28;20362;-79
2022/09/03 09:21:47;;;;;;;4.50;3.97;;;22.20;77.90;;;-142.21;100.00;112049.66;5045024;28;20226;-78
2022/09/03 09:24:26;;;;;;;6.07;4.43;;;22.20;77.30;;;-142.21;100.00;112049.66;5032867;28;20249;-79
2022/09/03 09:27:00;;;;;;;6.17;3.97;;;22.40;77.90;;;-142.21;100.00;112049.66;5032300;28;20245;-78
2022/09/03 09:29:32;;;;;;;6.83;3.30;;;22.40;76.90;;;-142.21;100.00;112049.66;5032723;28;20189;-80
2022/09/03 09:31:59;;;;;;;6.00;4.17;;;22.40;75.90;;;-142.21;100.00;112049.66;5051961;28;20696;-79
2022/09/03 09:34:27;;;;;;;4.33;3.90;;;22.50;76.20;;;-142.21;100.00;112049.66;5052842;28;20229;-78
2022/09/03 09:36:56;;;;;;;4.70;4.23;;;22.60;76.40;;;-142.21;100.00;112049.66;5052753;28;20572;-77
2022/09/03 09:39:25;;;;;;;4.20;3.80;;;22.70;75.60;;;-142.21;100.00;112049.66;5052732;28;20229;-78
2022/09/03 09:42:01;;;;;;;5.17;4.00;;;22.70;75.60;;;-142.21;100.00;112049.66;5051630;28;20263;-79
2022/09/03 09:44:28;;;;;;;4.00;3.60;;;22.80;75.80;;;-142.21;100.00;112049.66;5052617;28;20212;-77
2022/09/03 09:47:10;;;;;;;4.47;4.10;;;23.00;75.40;;;-142.21;100.00;112049.66;5052388;28;20306;-77
2022/09/03 09:49:54;;;;;;;4.53;3.90;;;23.10;75.70;;;-142.21;100.00;112049.66;5051746;28;20202;-79
2022/09/03 09:52:27;;;;;;;4.37;3.93;;;23.30;75.70;;;-142.21;100.00;112049.66;5052324;28;20206;-79
2022/09/03 09:55:09;;;;;;;4.87;3.90;;;23.40;75.10;;;-142.21;100.00;112049.66;5051716;28;20201;-79
2022/09/03 09:57:38;;;;;;;4.40;3.83;;;23.50;75.80;;;-142.21;100.00;112049.66;5045789;28;20210;-79
2022/09/03 10:00:10;;;;;;;4.70;3.40;;;23.70;76.00;;;-142.21;100.00;112049.66;5052114;28;20208;-79
2022/09/03 10:02:41;;;;;;;3.93;3.53;;;23.80;75.30;;;-142.21;96.71;112049.66;5051657;28;20198;-79
2022/09/03 10:05:21;;;;;;;3.87;3.10;;;24.00;73.50;;;-142.21;95.75;112049.66;5052292;28;20668;-79
2022/09/03 10:07:58;;;;;;;3.97;3.67;;;24.20;72.30;;;-142.21;95.58;112049.66;5039210;28;20197;-79
2022/09/03 10:10:31;;;;;;;3.93;3.07;;;24.30;72.10;;;-142.21;94.78;112049.66;5052205;28;20267;-80
2022/09/03 10:13:04;;;;;;;3.60;3.20;;;24.50;71.60;;;-142.21;94.39;112049.66;5023665;28;20202;-78
2022/09/03 10:15:40;;;;;;;2.80;2.60;;;24.70;71.10;;;-142.21;97.91;112049.66;5031568;28;20194;-78
2022/09/03 10:18:26;;;;;;;3.93;3.50;;;24.80;72.70;;;-142.21;98.71;112049.66;5035612;28;20214;-80
2022/09/03 10:21:03;;;;;;;3.53;2.90;;;25.00;73.70;;;-142.21;93.45;112049.66;5035894;28;20197;-80
2022/09/03 10:23:50;;;;;;;3.00;2.70;;;25.00;70.60;;;-142.21;95.29;112049.66;5035837;28;20630;-77
2022/09/03 10:26:29;;;;;;;2.93;2.67;;;25.20;71.20;;;-142.21;94.76;112049.66;5035829;28;20222;-78